Time;durP1;ratioP1;P1;durP2;ratioP2;P2;SDS_P1;SDS_P2;PMS_P1;PMS_P2;Temp;Humidity;BMP_temperature;BMP_pressure;BME280_temperature;BME280_humidity;BME280_pressure;Samples;Min_cycle;Max_cycle;Signal;HPM_P1;HPM_P2
2023/10/11 00:01:22;;;;;;;0.73;0.65;;;;;;;39.07;50.08;99243.84;7393673;19;20011;-79
2023/10/11 00:03:54;;;;;;;0.65;0.35;;;;;;;35.37;52.50;99255.31;7392838;19;20027;-79
2023/10/11 00:06:20;;;;;;;0.17;0.15;;;;;;;23.07;100.00;99262.84;7392788;19;20017;-79
2023/10/11 00:08:50;;;;;;;0.20;0.10;;;;;;;26.95;100.00;99276.59;7394280;19;20022;-79
2023/10/11 00:11:23;;;;;;;0.00;0.00;;;;;;;37.45;57.59;99260.50;7387192;19;20571;-79
2023/10/11 00:13:50;;;;;;;0.50;0.15;;;;;;;32.45;58.02;99262.97;7390798;19;20472;-80
2023/10/11 00:16:17;;;;;;;0.03;0.00;;;;;;;32.29;63.92;99262.16;7390530;19;20021;-79
2023/10/11 00:18:44;;;;;;;0.25;0.17;;;;;;;21.24;100.00;99280.69;7391203;19;20031;-79
2023/10/11 00:21:12;;;;;;;0.40;0.28;;;;;;;39.88;51.67;99257.31;7392612;19;20029;-79
2023/10/11 00:23:43;;;;;;;8.68;0.88;;;;;;;33.30;51.63;99262.19;7392708;19;20443;-79
2023/10/11 00:26:10;;;;;;;2.85;0.28;;;;;;;21.10;100.00;99285.75;7390374;19;20033;-79
2023/10/11 00:28:39;;;;;;;0.45;0.35;;;;;;;19.60;100.00;99277.84;7391965;19;20010;-79
2023/10/11 00:31:12;;;;;;;0.10;0.03;;;;;;;39.31;52.29;99249.53;7391297;19;20086;-80
2023/10/11 00:33:38;;;;;;;0.20;0.20;;;;;;;41.87;42.42;99248.25;7391546;19;20014;-79
2023/10/11 00:36:05;;;;;;;0.20;0.13;;;;;;;42.27;38.67;99254.59;7390385;19;20010;-79
2023/10/11 00:38:32;;;;;;;0.30;0.20;;;;;;;42.34;37.35;99241.50;7392740;19;20018;-79
2023/10/11 00:41:18;;;;;;;0.00;0.00;;;;;;;41.68;37.18;99250.22;7394449;19;20033;-79
2023/10/11 00:43:47;;;;;;;0.10;0.10;;;;;;;41.52;37.01;99247.81;7392342;19;20019;-79
2023/10/11 00:46:14;;;;;;;1.77;0.43;;;;;;;41.41;36.42;99237.41;7389389;19;20047;-79
2023/10/11 00:51:30;;;;;;;0.82;0.28;;;;;;;41.48;35.92;99241.91;7390093;19;20014;-79
2023/10/11 00:54:00;;;;;;;1.00;0.20;;;;;;;41.75;35.48;99251.03;7394749;19;20472;-79
2023/10/11 00:56:31;;;;;;;0.38;0.38;;;;;;;41.99;34.72;99251.34;7393484;19;20820;-79
2023/10/11 00:58:59;;;;;;;0.15;0.15;;;;;;;41.98;34.46;99255.72;7393391;19;20367;-79
2023/10/11 01:01:26;;;;;;;2.17;0.15;;;;;;;23.18;100.00;99260.31;7392011;19;20605;-79
2023/10/11 01:03:53;;;;;;;1.50;0.50;;;;;;;20.38;100.00;99253.94;7390841;19;20014;-79
2023/10/11 01:06:25;;;;;;;0.10;0.00;;;;;;;19.35;100.00;99251.28;7390536;19;20018;-79
2023/10/11 01:08:52;;;;;;;0.00;0.00;;;;;;;19.30;100.00;99263.44;7390511;19;20023;-78
2023/10/11 01:11:18;;;;;;;0.30;0.20;;;;;;;19.08;100.00;99254.75;7391421;19;20460;-79
2023/10/11 01:13:53;;;;;;;0.10;0.00;;;;;;;19.04;100.00;99257.88;7393269;19;20021;-79
2023/10/11 01:16:26;;;;;;;0.55;0.20;;;;;;;19.09;100.00;99254.19;7392054;19;20010;-79
2023/10/11 01:18:53;;;;;;;0.10;0.00;;;;;;;19.07;100.00;99253.22;7394708;19;20098;-79
2023/10/11 01:21:19;;;;;;;0.20;0.10;;;;;;;18.41;100.00;99249.78;7389868;19;20468;-79
2023/10/11 01:23:45;;;;;;;0.10;0.10;;;;;;;18.82;100.00;99261.22;7390953;19;20014;-79
2023/10/11 01:26:12;;;;;;;1.52;0.22;;;;;;;18.82;100.00;99245.03;7389368;19;20019;-80
2023/10/11 01:28:44;;;;;;;0.10;0.10;;;;;;;18.42;100.00;99254.13;7390307;19;20021;-79
2023/10/11 01:31:16;;;;;;;0.00;0.00;;;;;;;18.45;100.00;99239.69;7387835;19;20042;-79
2023/10/11 01:33:46;;;;;;;0.90;0.30;;;;;;;18.07;100.00;99232.78;7389466;19;20332;-79
2023/10/11 01:36:21;;;;;;;0.73;0.30;;;;;;;17.54;100.00;99237.63;7389913;19;20018;-79
2023/10/11 01:38:47;;;;;;;1.10;0.22;;;;;;;18.20;100.00;99227.13;7391883;19;20010;-79
2023/10/11 01:41:14;;;;;;;1.27;0.43;;;;;;;18.26;100.00;99227.78;7393061;19;20384;-79
2023/10/11 01:43:40;;;;;;;0.55;0.20;;;;;;;18.47;100.00;99242.00;7389514;19;20014;-79
2023/10/11 01:46:07;;;;;;;0.00;0.00;;;;;;;18.29;100.00;99235.16;7388824;19;20018;-79
2023/10/11 01:48:33;;;;;;;0.30;0.25;;;;;;;18.36;100.00;99236.56;7393108;19;20022;-79
2023/10/11 01:51:05;;;;;;;0.10;0.00;;;;;;;18.60;100.00;99239.88;7389317;19;20031;-79
2023/10/11 01:53:31;;;;;;;0.15;0.10;;;;;;;18.60;100.00;99233.50;7391566;19;20028;-79
2023/10/11 01:55:57;;;;;;;0.95;0.68;;;;;;;18.48;100.00;99244.25;7388289;19;20081;-79
2023/10/11 01:58:24;;;;;;;0.20;0.20;;;;;;;18.33;100.00;99240.47;7389991;19;20015;-79
2023/10/11 02:00:50;;;;;;;0.40;0.40;;;;;;;17.67;100.00;99243.25;7389373;19;20006;-79
2023/10/11 02:03:16;;;;;;;2.35;0.30;;;;;;;17.25;100.00;99241.41;7389101;19;20021;-79
2023/10/11 02:05:43;;;;;;;0.88;0.08;;;;;;;17.09;100.00;99231.16;7388598;19;20691;-79
2023/10/11 02:08:14;;;;;;;0.20;0.10;;;;;;;17.29;100.00;99234.16;7389311;19;20025;-79
2023/10/11 02:10:40;;;;;;;0.00;0.00;;;;;;;17.77;100.00;99221.06;7387702;19;20015;-79
2023/10/11 02:13:09;;;;;;;0.38;0.38;;;;;;;18.15;100.00;99234.41;7384936;19;20019;-79
2023/10/11 02:15:37;;;;;;;0.38;0.15;;;;;;;18.22;100.00;99229.41;7387978;19;20018;-79
2023/10/11 02:18:10;;;;;;;1.05;0.25;;;;;;;18.35;100.00;99226.56;7388575;19;20085;-79
2023/10/11 02:20:46;;;;;;;0.10;0.10;;;;;;;18.30;100.00;99227.47;7386054;19;20050;-79
2023/10/11 02:23:12;;;;;;;0.32;0.20;;;;;;;18.17;100.00;99228.22;7384579;19;20031;-79
2023/10/11 02:25:41;;;;;;;0.20;0.13;;;;;;;17.98;100.00;99222.69;7389870;19;20507;-79
2023/10/11 02:28:09;;;;;;;0.03;0.00;;;;;;;18.06;100.00;99209.47;7387104;19;20094;-79
2023/10/11 02:30:38;;;;;;;1.05;0.32;;;;;;;18.22;100.00;99212.50;7388417;19;20010;-79
2023/10/11 02:33:07;;;;;;;0.38;0.10;;;;;;;18.77;100.00;99214.16;7390436;19;20022;-79
2023/10/11 02:35:51;;;;;;;0.20;0.10;;;;;;;19.12;100.00;99216.41;7398601;19;20368;-80
2023/10/11 02:38:23;;;;;;;0.10;0.10;;;;;;;17.95;100.00;99208.94;7398068;19;20018;-79
2023/10/11 02:40:56;;;;;;;0.10;0.10;;;;;;;18.10;100.00;99206.34;7399811;19;20014;-79
2023/10/11 02:43:24;;;;;;;0.00;0.00;;;;;;;18.28;100.00;99222.34;7397844;19;20010;-79
2023/10/11 02:45:51;;;;;;;0.00;0.00;;;;;;;18.26;100.00;99221.41;7394348;19;20357;-79
2023/10/11 02:48:19;;;;;;;0.28;0.10;;;;;;;17.96;100.00;99245.03;7397705;19;20025;-79
2023/10/11 02:50:47;;;;;;;0.40;0.10;;;;;;;18.00;100.00;99241.88;7396669;19;20471;-79
2023/10/11 02:53:22;;;;;;;1.77;0.52;;;;;;;17.31;100.00;99259.72;7396708;19;20015;-79
2023/10/11 02:55:59;;;;;;;0.10;0.10;;;;;;;17.13;100.00;99260.50;7393979;19;20401;-79
2023/10/11 02:58:26;;;;;;;0.08;0.08;;;;;;;16.80;100.00;99271.50;7397522;19;20511;-79
2023/10/11 03:00:58;;;;;;;0.10;0.10;;;;;;;16.87;100.00;99270.91;7395924;19;20018;-79
2023/10/11 03:03:26;;;;;;;0.20;0.00;;;;;;;18.19;100.00;99268.66;7395014;19;20030;-79
2023/10/11 03:05:55;;;;;;;0.20;0.20;;;;;;;18.83;100.00;99229.66;7393528;19;20015;-79
2023/10/11 03:08:26;;;;;;;0.00;0.00;;;;;;;19.23;100.00;99226.66;7395775;19;20011;-79
2023/10/11 03:10:53;;;;;;;0.57;0.28;;;;;;;19.18;100.00;99214.19;7394275;19;20355;-79
2023/10/11 03:13:29;;;;;;;0.15;0.10;;;;;;;29.68;100.00;99202.72;7393955;19;20022;-79
2023/10/11 03:15:57;;;;;;;0.35;0.35;;;;;;;38.31;56.94;99163.34;7395074;19;20023;-79
2023/10/11 03:18:32;;;;;;;0.50;0.30;;;;;;;40.31;46.11;99150.91;7398088;19;20011;-80
2023/10/11 03:21:15;;;;;;;0.00;0.00;;;;;;;40.81;42.20;99154.66;7396599;19;20018;-79
2023/10/11 03:23:47;;;;;;;2.55;0.50;;;;;;;41.08;38.91;99150.72;7396408;19;20018;-79
2023/10/11 03:28:58;;;;;;;0.20;0.20;;;;;;;43.22;34.40;99144.03;7395786;19;20105;-79
2023/10/11 03:31:29;;;;;;;0.50;0.08;;;;;;;43.19;33.51;99127.91;7392118;19;20019;-79
2023/10/11 03:33:59;;;;;;;0.35;0.25;;;;;;;42.47;33.89;99125.25;7392708;19;20030;-79
2023/10/11 03:36:43;;;;;;;0.20;0.00;;;;;;;43.09;33.00;99113.19;7395833;19;20026;-79
2023/10/11 03:39:10;;;;;;;0.30;0.30;;;;;;;43.27;31.99;99105.25;7396509;19;20381;-79
2023/10/11 03:41:44;;;;;;;0.00;0.00;;;;;;;32.11;43.60;99120.00;7399279;19;20345;-79
2023/10/11 03:44:11;;;;;;;0.08;0.00;;;;;;;22.50;100.00;99132.88;7393267;19;20018;-79
2023/10/11 03:46:38;;;;;;;5.50;0.77;;;;;;;36.35;61.19;99128.47;7393475;19;20022;-79
2023/10/11 03:49:36;;;;;;;0.10;0.00;;;;;;;41.28;41.41;99124.69;7396572;19;20090;-79
2023/10/11 03:52:00;;;;;;;0.20;0.10;;;;;;;35.04;42.34;99128.81;7394876;19;20026;-79
2023/10/11 03:54:27;;;;;;;0.57;0.47;;;;;;;27.34;82.87;99140.75;7392996;19;20015;-79
2023/10/11 03:56:55;;;;;;;0.10;0.10;;;;;;;38.95;48.98;99120.50;7395384;19;20018;-79
2023/10/11 03:59:26;;;;;;;0.30;0.20;;;;;;;42.19;37.68;99123.50;7392885;19;20439;-79
2023/10/11 04:01:58;;;;;;;0.10;0.00;;;;;;;42.84;34.93;99126.97;7394328;19;20644;-79
2023/10/11 04:04:25;;;;;;;0.10;0.10;;;;;;;43.06;33.86;99114.66;7392725;19;20014;-79
2023/10/11 04:06:51;;;;;;;1.00;0.20;;;;;;;43.13;33.32;99101.47;7393744;19;20472;-80
2023/10/11 04:09:32;;;;;;;0.17;0.08;;;;;;;43.22;32.79;99100.03;7395412;19;20022;-79
2023/10/11 04:12:00;;;;;;;0.20;0.10;;;;;;;43.35;32.29;99116.25;7393657;19;20038;-79
2023/10/11 04:14:45;;;;;;;1.75;0.68;;;;;;;43.54;31.56;99123.66;7392991;19;20098;-79
2023/10/11 04:19:49;;;;;;;0.20;0.10;;;;;;;41.72;33.42;99123.75;7394167;19;20018;-79
2023/10/11 04:22:18;;;;;;;0.05;0.05;;;;;;;42.88;32.03;99127.72;7392679;19;20078;-79
2023/10/11 04:24:45;;;;;;;0.08;0.08;;;;;;;43.06;31.78;99120.50;7391370;19;20018;-79
2023/10/11 04:29:50;;;;;;;0.25;0.17;;;;;;;43.08;31.10;99129.31;7392462;19;20027;-79
2023/10/11 04:35:21;;;;;;;0.20;0.20;;;;;;;22.29;100.00;99171.38;7387745;19;20032;-79
2023/10/11 04:37:54;;;;;;;0.10;0.10;;;;;;;20.11;100.00;99172.69;7390813;19;20019;-79
2023/10/11 04:45:50;;;;;;;1.95;0.70;;;;;;;19.29;100.00;99180.03;7390971;19;20018;-79
2023/10/11 04:48:18;;;;;;;0.00;0.00;;;;;;;20.62;100.00;99181.97;7391398;19;20014;-79
2023/10/11 04:50:47;;;;;;;2.03;0.40;;;;;;;19.05;100.00;99196.56;7391504;19;20480;-78
2023/10/11 04:53:18;;;;;;;2.13;0.50;;;;;;;19.07;100.00;99196.75;7392273;19;20507;-79
2023/10/11 04:55:58;;;;;;;0.10;0.10;;;;;;;39.77;51.40;99171.81;7387667;19;20500;-79
2023/10/11 04:58:49;;;;;;;0.10;0.00;;;;;;;40.19;39.46;99168.97;7393659;19;20468;-79
2023/10/11 05:01:22;;;;;;;0.47;0.20;;;;;;;20.75;100.00;99201.63;7392893;19;20018;-79
2023/10/11 05:03:59;;;;;;;0.22;0.00;;;;;;;19.34;100.00;99198.16;7398192;19;20010;-79
2023/10/11 05:06:39;;;;;;;6.35;0.77;;;;;;;21.26;100.00;99200.81;7391392;19;20023;-79
2023/10/11 05:12:20;;;;;;;0.40;0.10;;;;;;;22.36;100.00;99194.06;7392973;19;20082;-79
2023/10/11 05:14:40;;;;;;;0.00;0.00;;;;;;;20.31;100.00;99191.69;7391308;19;20010;-79
2023/10/11 05:22:46;;;;;;;;;;;;;;;17.95;100.00;99206.88;7393842;19;20503;-81
2023/10/11 05:33:59;;;;;;;1.45;0.47;;;;;;;17.43;100.00;99216.00;7392894;19;20464;-80
2023/10/11 05:36:49;;;;;;;0.93;0.20;;;;;;;17.57;100.00;99213.25;7392058;19;20070;-80
2023/10/11 05:52:59;;;;;;;0.40;0.40;;;;;;;20.87;100.00;99196.41;7391841;19;20007;-81
2023/10/11 05:55:25;;;;;;;0.25;0.20;;;;;;;20.90;100.00;99184.69;7390381;19;20010;-81
2023/10/11 05:57:51;;;;;;;0.55;0.30;;;;;;;18.13;100.00;99175.00;7389682;19;20011;-81
2023/10/11 06:00:25;;;;;;;1.35;0.22;;;;;;;18.08;100.00;99158.22;7389303;19;20006;-81
2023/10/11 06:02:52;;;;;;;0.57;0.30;;;;;;;18.43;100.00;99125.94;7392586;19;20022;-80
2023/10/11 06:05:22;;;;;;;0.65;0.22;;;;;;;17.56;100.00;99139.28;7388312;19;20007;-80
2023/10/11 06:08:00;;;;;;;0.17;0.17;;;;;;;29.47;89.46;99151.22;7389185;19;20014;-79
2023/10/11 06:10:51;;;;;;;0.20;0.20;;;;;;;20.77;100.00;99176.34;7399081;19;20015;-80
2023/10/11 06:13:16;;;;;;;0.10;0.10;;;;;;;18.30;100.00;99188.00;7397818;19;20018;-80
2023/10/11 06:15:58;;;;;;;0.10;0.10;;;;;;;17.43;100.00;99204.00;7396297;19;20018;-80
2023/10/11 06:21:30;;;;;;;0.00;0.00;;;;;;;20.94;100.00;99196.41;7393606;19;20010;-81
2023/10/11 06:23:57;;;;;;;0.45;0.10;;;;;;;35.82;57.73;99173.69;7395953;19;20616;-79
2023/10/11 06:26:52;;;;;;;0.10;0.10;;;;;;;25.95;100.00;99184.09;7397970;19;20330;-80
2023/10/11 06:29:23;;;;;;;0.20;0.20;;;;;;;24.72;100.00;99185.84;7398079;19;20489;-80
2023/10/11 06:31:50;;;;;;;0.20;0.10;;;;;;;20.30;100.00;99193.75;7396497;19;20006;-80
2023/10/11 06:36:50;;;;;;;0.30;0.10;;;;;;;41.87;45.24;99164.16;7396203;19;20015;-79
2023/10/11 06:42:23;;;;;;;0.00;0.00;;;;;;;43.33;37.80;99160.22;7398284;19;20018;-80
2023/10/11 06:45:00;;;;;;;0.20;0.10;;;;;;;44.03;36.35;99157.56;7399997;19;20029;-80
2023/10/11 06:47:27;;;;;;;0.10;0.10;;;;;;;44.02;35.00;99164.13;7397253;19;20038;-80
2023/10/11 06:49:55;;;;;;;0.20;0.17;;;;;;;44.16;34.47;99170.78;7397667;19;20018;-80
2023/10/11 06:52:26;;;;;;;0.20;0.20;;;;;;;44.25;33.67;99162.75;7398139;19;20499;-80
2023/10/11 06:57:45;;;;;;;0.00;0.00;;;;;;;44.36;32.29;99176.69;7397357;19;20015;-79
2023/10/11 07:00:28;;;;;;;3.50;0.20;;;;;;;44.39;32.08;99174.47;7395919;19;20043;-79
2023/10/11 07:02:55;;;;;;;0.13;0.13;;;;;;;44.30;31.98;99167.88;7395193;19;20078;-79
2023/10/11 07:05:25;;;;;;;5.13;0.30;;;;;;;44.43;31.60;99174.50;7399860;19;20484;-79
2023/10/11 07:07:53;;;;;;;0.00;0.00;;;;;;;44.09;31.70;99172.25;7395245;19;20018;-78
2023/10/11 07:10:28;;;;;;;0.45;0.45;;;;;;;44.04;31.71;99170.03;7395796;19;20491;-78
2023/10/11 07:13:05;;;;;;;0.17;0.00;;;;;;;30.63;48.81;99191.88;7397873;19;20018;-81
2023/10/11 07:15:38;;;;;;;0.00;0.00;;;;;;;20.75;100.00;99218.63;7396772;19;20626;-78
2023/10/11 07:18:10;;;;;;;0.13;0.10;;;;;;;18.27;100.00;99212.41;7398211;19;20019;-79
2023/10/11 07:20:48;;;;;;;0.00;0.00;;;;;;;17.36;100.00;99215.88;7395604;19;20034;-78
2023/10/11 07:23:21;;;;;;;2.42;0.30;;;;;;;16.90;100.00;99213.56;7394591;19;20018;-79
2023/10/11 07:25:49;;;;;;;0.05;0.00;;;;;;;16.66;100.00;99218.00;7392782;19;20015;-79
2023/10/11 07:28:26;;;;;;;0.10;0.10;;;;;;;16.54;100.00;99211.03;7393708;19;20019;-79
2023/10/11 07:30:52;;;;;;;0.10;0.10;;;;;;;16.39;100.00;99221.94;7395606;19;20035;-79
2023/10/11 07:33:18;;;;;;;0.28;0.15;;;;;;;16.34;100.00;99228.38;7395647;19;20010;-78
2023/10/11 07:35:46;;;;;;;0.28;0.28;;;;;;;16.39;100.00;99224.75;7392203;19;20033;-79
2023/10/11 07:38:14;;;;;;;0.00;0.00;;;;;;;16.41;100.00;99210.91;7394425;19;20820;-79
2023/10/11 07:40:46;;;;;;;0.30;0.13;;;;;;;16.40;100.00;99217.81;7399914;19;20019;-79
2023/10/11 07:43:16;;;;;;;2.40;0.40;;;;;;;16.32;100.00;99216.91;7393421;19;20464;-79
2023/10/11 07:45:47;;;;;;;0.80;0.25;;;;;;;16.33;100.00;99226.09;7391958;19;20507;-79
2023/10/11 07:48:16;;;;;;;0.30;0.20;;;;;;;16.27;100.00;99237.41;7396273;19;20018;-79
2023/10/11 07:50:46;;;;;;;0.20;0.20;;;;;;;35.71;80.13;99196.50;7395161;19;20018;-79
2023/10/11 07:53:13;;;;;;;0.90;0.08;;;;;;;41.56;48.27;99183.50;7394114;19;20030;-80
2023/10/11 07:55:40;;;;;;;0.00;0.00;;;;;;;43.19;41.49;99174.81;7393126;19;20011;-80
2023/10/11 07:58:09;;;;;;;0.10;0.10;;;;;;;43.75;38.74;99186.84;7395781;19;20018;-80
2023/10/11 08:00:41;;;;;;;0.10;0.10;;;;;;;44.15;37.13;99180.34;7394495;19;20356;-80
2023/10/11 08:03:08;;;;;;;4.30;0.22;;;;;;;44.37;35.91;99174.47;7392136;19;20018;-79
2023/10/11 08:05:44;;;;;;;0.90;0.30;;;;;;;45.24;33.73;99175.16;7392869;19;20011;-79
2023/10/11 08:08:13;;;;;;;0.00;0.00;;;;;;;44.56;33.99;99181.09;7393330;19;20044;-80
2023/10/11 08:10:44;;;;;;;0.00;0.00;;;;;;;44.84;33.44;99184.03;7393371;19;20019;-80
2023/10/11 08:13:23;;;;;;;0.00;0.00;;;;;;;44.72;33.16;99187.72;7394932;19;20018;-80
2023/10/11 08:16:05;;;;;;;0.75;0.75;;;;;;;44.47;33.13;99183.31;7391279;19;20389;-79
2023/10/11 08:18:32;;;;;;;0.00;0.00;;;;;;;43.54;33.55;99197.72;7396405;19;20046;-80
2023/10/11 08:20:59;;;;;;;0.00;0.00;;;;;;;24.01;100.00;99236.94;7394200;19;20017;-79
2023/10/11 08:23:31;;;;;;;0.10;0.00;;;;;;;19.69;100.00;99251.19;7392094;19;20014;-79
2023/10/11 08:26:05;;;;;;;0.10;0.10;;;;;;;18.21;100.00;99247.63;7390463;19;20056;-80
2023/10/11 08:28:35;;;;;;;0.22;0.10;;;;;;;17.45;100.00;99252.06;7392178;19;20026;-80
2023/10/11 08:31:02;;;;;;;0.00;0.00;;;;;;;17.08;100.00;99254.97;7390535;19;20026;-80
2023/10/11 08:33:31;;;;;;;0.00;0.00;;;;;;;16.85;100.00;99256.59;7392066;19;20041;-80
2023/10/11 08:35:57;;;;;;;0.10;0.00;;;;;;;16.69;100.00;99244.28;7391603;19;20018;-80
2023/10/11 08:38:25;;;;;;;3.30;0.85;;;;;;;16.62;100.00;99240.03;7393006;19;20014;-81
2023/10/11 08:40:58;;;;;;;2.30;0.30;;;;;;;16.57;100.00;99243.69;7394950;19;20019;-81
2023/10/11 08:43:31;;;;;;;0.32;0.10;;;;;;;16.54;100.00;99239.13;7391568;19;20114;-81
2023/10/11 08:46:08;;;;;;;0.85;0.55;;;;;;;16.98;100.00;99231.34;7391691;19;20020;-80
2023/10/11 08:48:38;;;;;;;1.27;0.65;;;;;;;16.90;100.00;99238.88;7393885;19;20014;-81
2023/10/11 08:51:10;;;;;;;0.68;0.20;;;;;;;16.63;100.00;99247.16;7392689;19;20011;-81
2023/10/11 08:53:46;;;;;;;0.10;0.00;;;;;;;16.61;100.00;99244.13;7394919;19;20311;-80
2023/10/11 08:56:17;;;;;;;0.47;0.20;;;;;;;16.62;100.00;99251.28;7392389;19;20021;-80
2023/10/11 08:58:51;;;;;;;;;;;;;;;16.61;100.00;99255.38;7393302;19;20472;-80
2023/10/11 09:01:17;;;;;;;0.52;0.10;;;;;;;16.60;100.00;99253.88;7391883;19;19929;-80
2023/10/11 09:04:03;;;;;;;0.20;0.10;;;;;;;16.56;100.00;99250.59;7389593;19;20022;-81
2023/10/11 09:06:31;;;;;;;0.10;0.00;;;;;;;16.53;100.00;99260.09;7392715;19;20423;-81
2023/10/11 09:09:00;;;;;;;0.10;0.10;;;;;;;26.73;100.00;99238.56;7393981;19;20026;-83
2023/10/11 09:11:29;;;;;;;0.75;0.50;;;;;;;39.74;56.66;99219.88;7392549;19;20010;-81
2023/10/11 09:14:22;;;;;;;0.03;0.00;;;;;;;41.91;45.75;99234.41;7392652;19;20018;-81
2023/10/11 09:16:57;;;;;;;0.00;0.00;;;;;;;38.32;59.11;99226.66;7394346;19;20754;-81
2023/10/11 09:19:24;;;;;;;0.73;0.30;;;;;;;36.85;68.66;99216.44;7392759;19;20019;-82
2023/10/11 09:22:04;;;;;;;0.50;0.10;;;;;;;41.99;45.36;99204.53;7390615;19;20051;-81
2023/10/11 09:24:38;;;;;;;0.00;0.00;;;;;;;42.96;40.77;99183.47;7389183;19;20548;-82
2023/10/11 09:29:43;;;;;;;0.20;0.10;;;;;;;44.08;36.75;99182.53;7391670;19;20014;-82
2023/10/11 09:32:09;;;;;;;0.40;0.40;;;;;;;44.56;35.63;99186.97;7389934;19;20038;-83
2023/10/11 09:34:45;;;;;;;0.10;0.10;;;;;;;45.00;34.57;99175.22;7388536;19;20022;-81
2023/10/11 09:37:12;;;;;;;0.10;0.10;;;;;;;33.62;48.39;99170.53;7389861;19;20029;-81
2023/10/11 09:39:40;;;;;;;3.95;0.30;;;;;;;43.39;37.26;99169.78;7393671;19;20010;-81
2023/10/11 09:42:11;;;;;;;0.00;0.00;;;;;;;44.03;35.20;99169.31;7394703;19;20014;-80
2023/10/11 09:44:37;;;;;;;0.17;0.15;;;;;;;44.22;34.76;99162.00;7389033;19;20369;-81
2023/10/11 09:47:04;;;;;;;0.40;0.22;;;;;;;44.34;34.58;99167.88;7389367;19;20039;-81
2023/10/11 09:49:41;;;;;;;0.10;0.10;;;;;;;44.60;34.09;99175.97;7388922;19;20352;-82
2023/10/11 09:52:11;;;;;;;0.20;0.00;;;;;;;33.38;47.63;99198.28;7389682;19;20021;-81
2023/10/11 09:57:58;;;;;;;0.20;0.20;;;;;;;33.90;86.72;99174.66;7391507;19;20011;-54
2023/10/11 10:00:50;;;;;;;0.20;0.20;;;;;;;22.63;100.00;99185.09;7392396;19;20082;-54
2023/10/11 10:03:16;;;;;;;0.28;0.10;;;;;;;19.61;100.00;99191.81;7392469;19;20039;-53
2023/10/11 10:06:05;;;;;;;0.35;0.00;;;;;;;19.87;100.00;99195.75;7390701;19;20370;-54
2023/10/11 10:08:31;;;;;;;0.43;0.00;;;;;;;18.76;100.00;99190.06;7395805;19;20014;-53
2023/10/11 10:10:58;;;;;;;0.10;0.10;;;;;;;25.40;100.00;99188.44;7392981;19;20014;-53
2023/10/11 10:13:25;;;;;;;0.10;0.00;;;;;;;18.88;100.00;99197.72;7394783;19;20014;-56
2023/10/11 10:15:57;;;;;;;0.17;0.10;;;;;;;18.41;100.00;99215.97;7391795;19;20011;-56
2023/10/11 10:18:24;;;;;;;0.15;0.10;;;;;;;18.43;100.00;99219.00;7396083;19;20018;-55
2023/10/11 10:21:02;;;;;;;0.00;0.00;;;;;;;18.30;100.00;99219.00;7391308;19;20015;-55
2023/10/11 10:23:30;;;;;;;0.43;0.17;;;;;;;18.32;100.00;99216.41;7396022;19;20018;-55
2023/10/11 10:26:11;;;;;;;0.63;0.20;;;;;;;38.30;72.20;99188.78;7393392;19;20022;-55
2023/10/11 10:28:39;;;;;;;;;;;;;;;42.95;47.35;99184.91;7392053;19;20015;-55
2023/10/11 10:31:09;;;;;;;0.00;0.00;;;;;;;43.25;42.43;99171.91;7390218;19;20367;-55
2023/10/11 10:33:39;;;;;;;0.10;0.00;;;;;;;43.97;40.21;99180.28;7392980;19;20450;-56
2023/10/11 10:36:17;;;;;;;0.20;0.00;;;;;;;43.80;38.02;99188.31;7391214;19;20030;-55
2023/10/11 10:39:04;;;;;;;2.53;0.43;;;;;;;45.63;34.84;99182.41;7391028;19;20010;-54
2023/10/11 10:41:33;;;;;;;0.13;0.13;;;;;;;44.33;35.93;99178.16;7390571;19;20011;-54
2023/10/11 10:44:02;;;;;;;0.40;0.32;;;;;;;45.04;35.02;99184.75;7392960;19;20019;-55
2023/10/11 10:46:28;;;;;;;0.40;0.20;;;;;;;26.69;100.00;99203.22;7389856;19;20014;-54
2023/10/11 10:48:56;;;;;;;0.25;0.00;;;;;;;23.00;100.00;99210.41;7394930;19;20031;-53
2023/10/11 10:51:25;;;;;;;1.70;0.32;;;;;;;21.74;100.00;99208.19;7391012;19;20011;-52
2023/10/11 10:53:53;;;;;;;0.37;0.10;;;;;;;21.20;100.00;99217.25;7394565;19;20015;-52
2023/10/11 10:56:20;;;;;;;0.00;0.00;;;;;;;35.86;79.00;99206.47;7398417;19;20018;-53
2023/10/11 10:58:46;;;;;;;0.30;0.22;;;;;;;41.81;45.95;99198.47;7397734;19;20011;-52
2023/10/11 11:01:12;;;;;;;0.08;0.03;;;;;;;35.06;48.70;99207.03;7398746;19;20010;-52
2023/10/11 11:03:41;;;;;;;0.00;0.00;;;;;;;34.43;75.48;99214.53;7399525;19;20070;-52
2023/10/11 11:06:11;;;;;;;0.00;0.00;;;;;;;40.26;50.43;99219.44;7398279;19;20039;-52
2023/10/11 11:08:39;;;;;;;0.30;0.10;;;;;;;28.20;93.68;99237.56;7395834;19;20478;-52
2023/10/11 11:13:54;;;;;;;0.15;0.15;;;;;;;23.91;100.00;99247.44;7401022;19;20030;-53
2023/10/11 11:16:26;;;;;;;0.20;0.10;;;;;;;21.19;100.00;99255.38;7399422;19;20513;-53
2023/10/11 11:18:52;;;;;;;0.00;0.00;;;;;;;19.27;100.00;99250.44;7400802;19;20007;-54
2023/10/11 11:21:24;;;;;;;0.20;0.10;;;;;;;18.66;100.00;99273.63;7400382;19;20007;-54
2023/10/11 11:23:51;;;;;;;0.00;0.00;;;;;;;18.36;100.00;99270.38;7398937;19;20026;-54
2023/10/11 11:26:22;;;;;;;0.10;0.10;;;;;;;18.23;100.00;99279.63;7398435;19;20088;-54
2023/10/11 11:29:07;;;;;;;0.30;0.10;;;;;;;17.92;100.00;99284.03;7398563;19;20011;-55
2023/10/11 11:31:53;;;;;;;0.20;0.20;;;;;;;17.27;100.00;99276.16;7397224;19;20482;-55
2023/10/11 11:34:33;;;;;;;0.10;0.10;;;;;;;17.32;100.00;99275.31;7400307;19;20378;-55
2023/10/11 11:37:04;;;;;;;;;;;;;;;17.76;100.00;99282.28;7396902;19;20368;-55
2023/10/11 11:39:39;;;;;;;0.00;0.00;;;;;;;17.87;100.00;99284.88;7399966;19;20356;-54
2023/10/11 11:42:19;;;;;;;0.00;0.00;;;;;;;17.74;100.00;99276.41;7397409;19;20015;-54
2023/10/11 11:44:49;;;;;;;0.00;0.00;;;;;;;17.63;100.00;99287.88;7401222;19;20021;-54
2023/10/11 11:47:21;;;;;;;0.03;0.00;;;;;;;17.51;100.00;99295.00;7395732;19;20014;-55
2023/10/11 11:49:47;;;;;;;0.20;0.20;;;;;;;17.46;100.00;99298.63;7395238;19;20010;-54
2023/10/11 11:52:16;;;;;;;0.10;0.10;;;;;;;17.36;100.00;99301.09;7397400;19;20014;-54
2023/10/11 11:54:43;;;;;;;0.00;0.00;;;;;;;17.31;100.00;99281.47;7401798;19;20014;-53
2023/10/11 11:57:10;;;;;;;0.30;0.30;;;;;;;17.39;100.00;99282.34;7396925;19;20015;-53
2023/10/11 11:59:38;;;;;;;0.10;0.08;;;;;;;17.24;100.00;99282.09;7397294;19;20490;-54
2023/10/11 12:02:09;;;;;;;0.15;0.15;;;;;;;20.37;100.00;99254.50;7397611;19;20070;-54
2023/10/11 12:04:36;;;;;;;0.00;0.00;;;;;;;17.44;100.00;99250.53;7400220;19;20604;-54
2023/10/11 12:07:09;;;;;;;0.30;0.10;;;;;;;17.85;100.00;99239.59;7396515;19;20018;-54
2023/10/11 12:09:37;;;;;;;0.10;0.00;;;;;;;21.47;100.00;99224.06;7395383;19;20010;-55
2023/10/11 12:12:06;;;;;;;0.10;0.00;;;;;;;17.47;100.00;99218.50;7396976;19;20007;-54
2023/10/11 12:14:37;;;;;;;0.10;0.10;;;;;;;25.56;100.00;99192.59;7399990;19;20031;-54
2023/10/11 12:17:09;;;;;;;0.20;0.10;;;;;;;29.66;86.60;99191.13;7396935;19;20506;-54
2023/10/11 12:19:42;;;;;;;0.00;0.00;;;;;;;24.22;100.00;99191.03;7396495;19;20496;-54
2023/10/11 12:22:13;;;;;;;0.00;0.00;;;;;;;19.08;100.00;99184.91;7396874;19;20010;-54
2023/10/11 12:24:44;;;;;;;0.10;0.10;;;;;;;17.86;100.00;99179.16;7400501;19;20014;-54
2023/10/11 12:27:11;;;;;;;0.10;0.00;;;;;;;17.43;100.00;99196.28;7396660;19;20018;-54
2023/10/11 12:29:38;;;;;;;0.13;0.10;;;;;;;17.27;100.00;99193.78;7396818;19;20020;-54
2023/10/11 12:32:06;;;;;;;0.00;0.00;;;;;;;17.19;100.00;99185.22;7395890;19;20017;-54
2023/10/11 12:34:32;;;;;;;0.10;0.00;;;;;;;17.12;100.00;99190.72;7397230;19;20428;-53
2023/10/11 12:37:00;;;;;;;0.13;0.00;;;;;;;17.05;100.00;99183.66;7396197;19;20011;-53
2023/10/11 12:39:31;;;;;;;0.57;0.40;;;;;;;17.04;100.00;99170.91;7398474;19;20455;-53
2023/10/11 12:41:59;;;;;;;;;;;;;;;17.02;100.00;99192.41;7396670;19;20015;-52
2023/10/11 12:44:28;;;;;;;0.08;0.08;;;;;;;16.91;100.00;99182.09;7398639;19;19940;-53
2023/10/11 12:46:58;;;;;;;0.10;0.00;;;;;;;16.84;100.00;99177.09;7394637;19;20049;-53
2023/10/11 12:49:27;;;;;;;0.08;0.00;;;;;;;16.73;100.00;99190.56;7396045;19;20011;-53
2023/10/11 12:51:54;;;;;;;0.10;0.03;;;;;;;16.79;100.00;99194.81;7395885;19;20015;-53
2023/10/11 12:54:21;;;;;;;0.00;0.00;;;;;;;16.72;100.00;99191.88;7394590;19;20011;-53
2023/10/11 12:56:47;;;;;;;0.20;0.20;;;;;;;16.67;100.00;99227.94;7394641;19;20028;-53